Durham, Oregon
Current Conditions -  °F | °C
As of 1:01 AM on Saturday 29 Nov 2014 (Local Time) from KHIO Reporting Station
Overcast Overcast  
Wind Chill: 38°   Ceiling: 7000
Heat Index: 41°   Visibility: 10mi
Dew Point: 39°   Wind: 5mph
Humidity: 93%   Direction: 290°WNW
Pressure: 29.63"   Gusts: NA
Location:  45.4077°N, 122.809°W
Report Text: KHIO 290901Z AUTO 29004KT 10SM FEW016 SCT023 OVC070 05/04 A2963 RMK AO2 RAE0859 P0000 T00500039
Loading
Personal Weather Stations






























Interactive Weather Map New forecast layout! Learn more

10-Day Weather Forecast

Advertisements
Track Severe Weather on mobile